Strait of Georgia - south of Nanaimo: Past 24 Hour Conditions

 

East Dellwood - 46207

09:00 PM PDT 19 October 2014Buoy position: 50.88N 129.93W
This table is a summary of hourly weather conditions for the past 24 hours.
Date / Time
(PDT)
Wind(knots) Wave height(m) Wave period(s) Pressure(kPa) Air tempC) Water tempC)
19 October 2014
21:00 N/A N/A N/A N/A N/A N/A
20:00 S 19 gust 23 4.6 11.0 99.5 14 14
19:00 SSW 21 gust 27 4.5 14.0 99.4 13 14
18:00 S 18 gust 21 4.5 11.0 99.4 15 14
17:00 S 16 gust 21 4.8 11.0 99.4 15 14
16:00 S 16 gust 21 4.3 10.0 99.4 15 14
15:00 S 16 gust 21 4.3 12.0 99.3 15 14
14:00 S 14 gust 18 4.4 11.0 99.3 15 14
13:00 S 14 gust 18 4.5 11.0 99.2 15 14
12:00 S 12 gust 16 4.8 11.0 99.2 15 14
11:00 SSW 10 gust 14 4.4 11.0 99.1 15 14
10:00 SSW 14 gust 19 5.1 10.0 99.0 14 14
9:00 N/A N/A N/A N/A N/A N/A
8:00 S 18 gust 21 6.0 11.0 98.9 15 14
7:00 S 23 gust 29 6.2 11.0 98.8 15 14
6:00 S 23 gust 31 6.5 11.0 98.8 16 14
5:00 S 31 gust 41 6.4 10.0 98.7 15 14
4:00 SSE 37 gust 49 5.6 10.0 98.7 15 14
3:00 SSE 35 gust 43 4.4 10.0 98.8 15 14
2:00 ESE 25 gust 29 4.0 10.0 98.9 14 14
1:00 N/A N/A N/A N/A N/A N/A
0:00 SE 25 gust 31 3.8 10.0 99.2 15 14
18 October 2014
23:00 SSE 18 gust 21 4.0 9.0 99.4 14 14
22:00 SSE 14 gust 18 4.0 10.0 99.5 14 14
21:00 SSE 16 gust 19 4.3 10.0 99.6 14 14
 
Map of Pacific - South Coast marine weather areas Tsawwassen Ferry Terminal South Nomad - 46036 Sentry Shoal - 46131 South Brooks - 46132 Halibut Bank - 46146 South Moresby - 46147 South Hecate Strait - 46185 West Sea Otter - 46204 La Perouse Bank - 46206 East Dellwood - 46207 Discovery Island Esquimalt Harbour Kelp Reefs Malahat Race Rocks Lightstation Saturna Island Sheringham Point University of Victoria Victoria Gonzales Victoria Int'l Airport Ballenas Islands Campbell River Airport Comox Airport Entrance Island Fanny Island Nanaimo Airport Port Hardy Airport Sisters Islets Estevan Point Sartine Island Solander Island Tofino Airport Grief Point Powell River Airport Sechelt Cape St.James Bella Bella Airport Bella Coola Airport Cathedral Point Herbert Island Point Atkinson Sand Heads Lightstation Vancouver Harbour Vancouver Int'l Airport West Vancouver Port Alberni Howe Sound - Pam Rocks Squamish Airport